Time;durP1;ratioP1;P1;durP2;ratioP2;P2;SDS_P1;SDS_P2;PMS_P1;PMS_P2;Temp;Humidity;BMP_temperature;BMP_pressure;BME280_temperature;BME280_humidity;BME280_pressure;Samples;Min_cycle;Max_cycle;Signal;HPM_P1;HPM_P2
2023/09/12 03:47:57;;;;;;;8.10;5.25;;;;;;;16.87;100.00;100220.75;6051607;28;20110;-84
2023/09/12 03:51:01;;;;;;;11.02;5.47;;;;;;;16.93;100.00;100215.25;5236854;33;33805;-83
2023/09/12 03:54:04;;;;;;;10.63;5.10;;;;;;;16.95;100.00;100213.16;5237066;34;33959;-83
2023/09/12 03:57:07;;;;;;;9.95;5.78;;;;;;;16.96;100.00;100212.12;5237197;34;34346;-83
2023/09/12 04:00:11;;;;;;;7.72;5.12;;;;;;;16.93;100.00;100207.09;5237075;34;35396;-83
2023/09/12 04:03:16;;;;;;;12.27;6.50;;;;;;;16.95;100.00;100213.16;5202229;34;34742;-83
2023/09/12 04:06:19;;;;;;;10.30;5.40;;;;;;;16.88;100.00;100206.94;5241821;33;33947;-83
2023/09/12 04:09:22;;;;;;;9.93;5.78;;;;;;;16.85;100.00;100207.41;5241119;33;34569;-83
2023/09/12 04:12:25;;;;;;;13.13;5.15;;;;;;;16.78;100.00;100220.22;5241565;33;33606;-83
2023/09/12 04:15:28;;;;;;;9.60;6.20;;;;;;;16.80;100.00;100217.28;5254422;33;34536;-83
2023/09/12 04:18:31;;;;;;;11.45;6.45;;;;;;;16.73;100.00;100217.28;5241666;33;33825;-83
2023/09/12 04:21:34;;;;;;;8.40;5.35;;;;;;;16.73;100.00;100220.84;5242111;33;33773;-83
2023/09/12 04:24:37;;;;;;;10.10;5.20;;;;;;;16.77;100.00;100219.38;5241579;33;33492;-83
2023/09/12 04:27:41;;;;;;;8.10;5.82;;;;;;;16.80;100.00;100223.53;5241796;33;34579;-87
2023/09/12 04:30:44;;;;;;;9.52;6.28;;;;;;;16.76;100.00;100225.88;5241542;33;34804;-87
2023/09/12 04:33:52;;;;;;;9.73;5.50;;;;;;;16.77;100.00;100229.44;5242035;33;33854;-87
2023/09/12 04:36:55;;;;;;;10.15;6.30;;;;;;;16.86;100.00;100225.38;5254375;33;33858;-83
2023/09/12 04:39:58;;;;;;;10.23;5.32;;;;;;;16.85;100.00;100231.88;5243038;33;34295;-83
2023/09/12 04:43:04;;;;;;;8.80;6.18;;;;;;;16.83;100.00;100228.53;5242992;33;33828;-83
2023/09/12 04:46:06;;;;;;;9.15;5.95;;;;;;;16.96;100.00;100225.72;5245989;33;33870;-83
2023/09/12 04:49:10;;;;;;;11.00;6.12;;;;;;;16.93;100.00;100231.56;5245539;33;34495;-83
2023/09/12 04:52:12;;;;;;;9.20;5.80;;;;;;;17.01;100.00;100238.62;5257026;33;33448;-83
2023/09/12 04:55:16;;;;;;;8.27;5.82;;;;;;;17.09;100.00;100237.50;5246659;33;34049;-83
2023/09/12 04:58:18;;;;;;;7.28;5.90;;;;;;;17.14;100.00;100232.22;5241830;33;33496;-83
2023/09/12 05:01:21;;;;;;;11.15;6.60;;;;;;;17.20;100.00;100234.06;5254354;33;34884;-83
2023/09/12 05:04:24;;;;;;;10.77;5.28;;;;;;;17.29;100.00;100235.44;5254493;33;33384;-83
2023/09/12 05:07:27;;;;;;;11.93;6.37;;;;;;;17.33;100.00;100252.94;5254390;33;34011;-83
2023/09/12 05:10:30;;;;;;;12.93;6.55;;;;;;;17.42;100.00;100245.31;5241593;33;34465;-83
2023/09/12 05:13:34;;;;;;;9.70;6.20;;;;;;;17.48;100.00;100247.13;5254140;33;34777;-83
2023/09/12 05:16:36;;;;;;;12.07;6.70;;;;;;;17.68;100.00;100245.00;5241524;33;33832;-83
2023/09/12 05:19:40;;;;;;;9.90;6.35;;;;;;;17.74;100.00;100247.91;5241645;33;34303;-83
2023/09/12 05:22:43;;;;;;;9.57;5.97;;;;;;;17.80;100.00;100249.72;5254621;33;34575;-83
2023/09/12 05:25:46;;;;;;;11.52;5.82;;;;;;;17.83;100.00;100243.84;5230178;33;33980;-83
2023/09/12 05:28:52;;;;;;;12.30;5.90;;;;;;;17.92;100.00;100244.34;5241942;33;33644;-83
2023/09/12 05:31:55;;;;;;;8.15;5.95;;;;;;;18.01;100.00;100241.06;5241386;33;34186;-83
2023/09/12 05:34:58;;;;;;;12.13;6.10;;;;;;;18.10;100.00;100247.84;5239855;33;33566;-83
2023/09/12 05:38:22;;;;;;;12.80;6.68;;;;;;;18.22;100.00;100256.09;5246941;33;33457;-83
2023/09/12 05:41:25;;;;;;;10.05;5.70;;;;;;;18.35;100.00;100255.06;5220599;33;33619;-83
2023/09/12 05:44:28;;;;;;;9.60;6.32;;;;;;;18.55;100.00;100257.50;5240344;33;33867;-83
2023/09/12 05:47:31;;;;;;;12.07;6.55;;;;;;;18.65;100.00;100257.75;5229159;33;34557;-83
2023/09/12 05:50:36;;;;;;;10.25;5.93;;;;;;;18.84;100.00;100254.97;5239996;33;34460;-83
2023/09/12 05:53:39;;;;;;;11.15;6.00;;;;;;;18.88;100.00;100267.91;5253261;33;33784;-83
2023/09/12 05:56:42;;;;;;;8.70;6.10;;;;;;;19.00;100.00;100260.56;5223281;34;33308;-83
2023/09/12 05:59:45;;;;;;;9.93;5.70;;;;;;;19.10;100.00;100261.88;5243816;33;33943;-83
2023/09/12 06:02:48;;;;;;;8.70;6.00;;;;;;;19.19;100.00;100266.75;5239231;33;33653;-83
2023/09/12 06:05:52;;;;;;;8.73;6.45;;;;;;;19.24;100.00;100264.13;5239184;33;33507;-83
2023/09/12 06:08:55;;;;;;;10.02;5.60;;;;;;;19.34;100.00;100260.00;5240892;33;35055;-83
2023/09/12 06:11:58;;;;;;;11.02;6.68;;;;;;;19.50;100.00;100267.44;5240404;33;33930;-83
2023/09/12 06:15:03;;;;;;;10.15;6.55;;;;;;;19.63;100.00;100261.72;5237534;33;34524;-83
2023/09/12 06:18:07;;;;;;;11.63;6.00;;;;;;;19.79;100.00;100262.91;5239927;33;33728;-83
2023/09/12 06:21:10;;;;;;;13.55;5.90;;;;;;;19.89;100.00;100265.84;5240129;33;33932;-83
2023/09/12 06:24:15;;;;;;;10.18;6.12;;;;;;;19.97;100.00;100269.25;5250556;33;34177;-87
2023/09/12 06:27:18;;;;;;;11.02;5.85;;;;;;;20.02;100.00;100270.19;5239585;33;34212;-87
2023/09/12 06:30:22;;;;;;;9.73;6.15;;;;;;;20.25;100.00;100268.47;5253805;33;33767;-88
2023/09/12 06:33:26;;;;;;;11.70;5.55;;;;;;;20.29;100.00;100270.44;5244210;33;34267;-84
2023/09/12 06:36:29;;;;;;;13.60;6.00;;;;;;;20.47;100.00;100279.53;5259398;33;34579;-83
2023/09/12 06:39:32;;;;;;;10.10;6.30;;;;;;;20.60;100.00;100271.88;5246179;33;33801;-83
2023/09/12 06:42:36;;;;;;;9.30;6.30;;;;;;;20.81;100.00;100266.75;5258853;33;33795;-84
2023/09/12 06:45:41;;;;;;;11.10;5.70;;;;;;;21.00;99.29;100275.53;5247485;33;33826;-83
2023/09/12 06:48:45;;;;;;;10.13;5.68;;;;;;;21.12;97.83;100276.28;5259899;33;33423;-83
2023/09/12 06:51:48;;;;;;;11.77;6.53;;;;;;;21.26;97.21;100276.75;5260659;33;33948;-84
2023/09/12 06:54:53;;;;;;;15.82;7.45;;;;;;;21.51;95.19;100270.87;5247971;33;33487;-83
2023/09/12 06:57:56;;;;;;;13.32;7.40;;;;;;;21.64;94.43;100277.87;5246168;33;34205;-83
2023/09/12 07:01:06;;;;;;;14.60;6.62;;;;;;;21.78;94.38;100275.59;5233334;33;33530;-83
2023/09/12 07:04:09;;;;;;;13.75;7.78;;;;;;;21.96;93.43;100272.53;5256147;33;34308;-83
2023/09/12 07:07:13;;;;;;;12.43;7.75;;;;;;;22.12;92.00;100273.56;5246036;33;33796;-83
2023/09/12 07:10:16;;;;;;;12.20;6.90;;;;;;;22.33;91.49;100280.13;5245187;33;33279;-83
2023/09/12 07:13:27;;;;;;;10.88;7.35;;;;;;;22.40;92.15;100273.31;5236458;33;34452;-84
2023/09/12 07:16:31;;;;;;;12.27;7.47;;;;;;;22.56;89.63;100287.22;5245206;33;33883;-83
2023/09/12 07:19:34;;;;;;;12.20;7.35;;;;;;;22.69;88.09;100281.28;5244967;33;33730;-83
2023/09/12 07:22:39;;;;;;;13.40;6.85;;;;;;;22.87;85.34;100275.44;5231090;33;34299;-83
2023/09/12 07:25:42;;;;;;;13.75;7.68;;;;;;;22.92;83.92;100274.63;5243281;33;33177;-83
2023/09/12 07:28:45;;;;;;;12.73;7.85;;;;;;;23.13;84.78;100280.31;5222803;33;34215;-84
2023/09/12 07:31:52;;;;;;;12.40;7.62;;;;;;;23.35;83.29;100288.44;5245356;33;33831;-84
2023/09/12 07:34:55;;;;;;;11.88;7.22;;;;;;;23.43;80.34;100283.28;5245861;33;33973;-84
2023/09/12 07:37:59;;;;;;;11.90;7.20;;;;;;;23.44;79.58;100295.09;5246443;33;33469;-84
2023/09/12 07:41:03;;;;;;;14.00;7.40;;;;;;;23.57;79.93;100283.59;5245272;33;34328;-83
2023/09/12 07:44:07;;;;;;;11.98;7.28;;;;;;;23.79;81.39;100283.50;5241091;33;33613;-84
2023/09/12 07:47:10;;;;;;;11.57;8.02;;;;;;;23.82;81.17;100284.87;5230130;33;33564;-84
2023/09/12 07:50:14;;;;;;;12.30;7.53;;;;;;;23.92;78.51;100282.97;5229990;33;34545;-84
2023/09/12 07:53:17;;;;;;;13.70;7.75;;;;;;;24.05;78.48;100269.84;5241337;33;33883;-84
2023/09/12 07:56:20;;;;;;;9.88;7.43;;;;;;;24.20;78.59;100289.97;5229796;33;33757;-83
2023/09/12 07:59:23;;;;;;;10.50;6.70;;;;;;;24.30;76.14;100283.66;5254124;33;34011;-84
2023/09/12 08:02:26;;;;;;;12.02;6.55;;;;;;;24.39;76.61;100279.28;5241603;33;34467;-84
2023/09/12 08:05:29;;;;;;;12.05;6.50;;;;;;;24.68;76.03;100273.31;5253897;33;34155;-83
2023/09/12 08:08:32;;;;;;;11.40;6.70;;;;;;;24.74;76.19;100276.88;5254652;33;35242;-83
2023/09/12 08:11:36;;;;;;;11.63;6.70;;;;;;;24.92;74.79;100270.81;5253936;33;33865;-83
2023/09/12 08:14:38;;;;;;;13.62;6.65;;;;;;;24.97;75.37;100265.31;5241311;33;33869;-83
2023/09/12 08:17:41;;;;;;;19.83;7.05;;;;;;;25.20;74.61;100269.47;5229620;33;33972;-83
2023/09/12 08:20:44;;;;;;;12.02;7.00;;;;;;;25.36;73.56;100264.78;5241221;33;34027;-83
2023/09/12 08:23:48;;;;;;;11.52;6.82;;;;;;;25.53;71.16;100262.50;5239716;33;33960;-88
2023/09/12 08:26:50;;;;;;;12.93;6.70;;;;;;;25.64;70.87;100265.22;5254637;33;33947;-88
2023/09/12 08:29:54;;;;;;;12.77;6.20;;;;;;;25.84;69.85;100272.62;5253476;33;33990;-88
2023/09/12 08:32:57;;;;;;;12.18;6.32;;;;;;;26.02;68.37;100270.06;5212072;33;34862;-88
2023/09/12 08:36:00;;;;;;;14.00;6.40;;;;;;;26.26;66.32;100263.87;5233523;33;34676;-84
2023/09/12 08:39:04;;;;;;;10.50;6.80;;;;;;;26.33;67.61;100269.09;5252967;33;33687;-84
2023/09/12 08:42:12;;;;;;;17.00;6.62;;;;;;;26.41;67.12;100257.41;5229574;33;33742;-84
2023/09/12 08:45:17;;;;;;;12.77;6.00;;;;;;;26.57;67.71;100261.78;5254100;33;33757;-83
2023/09/12 08:48:23;;;;;;;8.90;5.68;;;;;;;26.91;66.78;100263.69;5257447;33;34891;-83
2023/09/12 08:51:27;;;;;;;16.30;5.43;;;;;;;27.17;63.82;100264.31;5256486;33;33949;-83
2023/09/12 08:54:31;;;;;;;10.82;6.32;;;;;;;27.42;63.16;100265.19;5243476;33;33605;-83
2023/09/12 08:57:37;;;;;;;11.60;5.75;;;;;;;27.53;60.42;100250.97;5230879;33;34449;-82
2023/09/12 09:00:42;;;;;;;9.93;5.90;;;;;;;27.39;60.84;100252.78;5252992;33;33566;-83
2023/09/12 09:03:45;;;;;;;9.57;5.82;;;;;;;27.66;58.34;100252.19;5239882;33;33553;-83
2023/09/12 09:06:50;;;;;;;14.00;5.60;;;;;;;27.56;58.07;100253.13;5238486;33;34804;-83
2023/09/12 09:09:53;;;;;;;10.90;5.03;;;;;;;27.79;58.44;100248.75;5254373;33;33977;-83
2023/09/12 09:12:59;;;;;;;8.88;4.90;;;;;;;28.06;57.57;100254.78;5232115;34;34701;-83
2023/09/12 09:16:17;;;;;;;17.70;5.25;;;;;;;28.32;56.63;100256.06;5239997;33;34146;-83
2023/09/12 09:19:21;;;;;;;16.77;6.25;;;;;;;28.55;55.35;100253.50;5242588;33;35420;-83
2023/09/12 09:22:24;;;;;;;11.30;5.12;;;;;;;28.76;56.47;100245.72;5239186;33;35867;-83
2023/09/12 09:25:28;;;;;;;6.32;4.62;;;;;;;29.06;52.21;100249.94;5252063;33;34776;-83
2023/09/12 09:28:31;;;;;;;10.60;4.90;;;;;;;29.06;49.36;100247.97;5253811;33;34938;-83
2023/09/12 09:31:34;;;;;;;8.90;4.60;;;;;;;29.09;49.07;100247.37;5239405;33;34028;-83
2023/09/12 09:34:42;;;;;;;10.18;4.55;;;;;;;29.10;49.52;100239.88;5247917;33;34619;-83
2023/09/12 09:37:45;;;;;;;8.15;5.22;;;;;;;29.14;49.50;100247.28;5241114;33;34685;-83
2023/09/12 09:40:48;;;;;;;8.32;4.80;;;;;;;29.19;48.55;100246.34;5228354;33;33877;-82
2023/09/12 09:43:52;;;;;;;6.40;4.60;;;;;;;29.32;47.95;100245.56;5253551;33;34465;-83
2023/09/12 09:47:02;;;;;;;5.75;4.20;;;;;;;29.44;47.41;100244.22;5242564;33;33515;-82
2023/09/12 09:50:14;;;;;;;9.55;4.07;;;;;;;29.55;45.14;100243.72;5236502;33;34572;-83
2023/09/12 09:53:17;;;;;;;;;;;;;;;29.75;44.59;100242.53;5253204;33;33813;-83
2023/09/12 09:56:20;;;;;;;8.93;3.67;;;;;;;29.64;44.43;100243.03;5241415;33;34508;-83
2023/09/12 09:59:25;;;;;;;6.32;3.40;;;;;;;29.79;42.43;100235.19;5253825;33;33832;-83
2023/09/12 10:02:29;;;;;;;7.57;3.80;;;;;;;29.77;43.10;100243.00;5240824;33;34101;-87
2023/09/12 10:05:33;;;;;;;5.95;4.05;;;;;;;29.94;41.60;100233.25;5239991;33;33921;-83
2023/09/12 10:08:37;;;;;;;5.07;3.90;;;;;;;30.00;42.18;100240.31;5241327;33;33867;-83
2023/09/12 10:11:43;;;;;;;7.22;3.72;;;;;;;30.20;43.31;100233.50;5253416;33;33722;-83
2023/09/12 10:14:46;;;;;;;5.45;3.67;;;;;;;30.45;40.65;100230.16;5253780;33;33856;-83
2023/09/12 10:17:57;;;;;;;7.85;3.70;;;;;;;30.45;41.06;100230.16;5229224;33;34598;-83
2023/09/12 10:21:08;;;;;;;6.28;3.58;;;;;;;30.67;40.03;100222.94;5253004;33;33771;-82
2023/09/12 10:24:12;;;;;;;5.70;3.45;;;;;;;30.70;38.30;100233.44;5240454;33;34846;-83
2023/09/12 10:27:16;;;;;;;6.05;3.72;;;;;;;30.91;38.66;100225.41;5239186;33;32408;-83
2023/09/12 10:30:21;;;;;;;8.75;4.10;;;;;;;30.99;38.29;100218.28;5228735;33;34997;-83
2023/09/12 10:33:26;;;;;;;6.10;4.03;;;;;;;31.16;36.57;100227.53;5252468;33;33360;-83
2023/09/12 10:36:30;;;;;;;5.53;3.62;;;;;;;31.36;35.87;100217.84;5235837;33;34241;-82
2023/09/12 10:39:35;;;;;;;5.37;3.62;;;;;;;31.43;36.09;100213.75;5233237;33;33500;-83
2023/09/12 10:42:39;;;;;;;7.50;3.85;;;;;;;31.87;35.95;100207.16;5241715;33;35447;-82
2023/09/12 10:45:44;;;;;;;6.37;4.10;;;;;;;32.02;35.36;100206.72;5243262;33;34558;-82
2023/09/12 10:48:47;;;;;;;6.55;3.95;;;;;;;32.22;34.88;100208.03;5253702;33;33923;-83
2023/09/12 10:51:51;;;;;;;8.30;4.07;;;;;;;32.65;34.62;100201.66;5233872;34;33992;-82
2023/09/12 10:54:55;;;;;;;11.82;4.22;;;;;;;32.65;34.36;100204.44;5227622;34;34993;-82
2023/09/12 10:58:04;;;;;;;9.93;4.75;;;;;;;32.77;34.26;100209.34;5240244;34;33842;-83
2023/09/12 11:01:26;;;;;;;8.18;3.83;;;;;;;33.13;33.65;100206.13;5235150;34;33430;-83
2023/09/12 11:04:33;;;;;;;7.90;4.12;;;;;;;33.25;33.25;100204.62;5234809;34;34447;-83
2023/09/12 11:07:36;;;;;;;8.98;4.50;;;;;;;33.69;30.97;100210.84;5248441;33;33418;-83
2023/09/12 11:10:38;;;;;;;8.63;4.18;;;;;;;33.52;32.54;100206.16;5252001;33;34266;-83
2023/09/12 11:13:43;;;;;;;8.68;4.30;;;;;;;33.83;30.95;100203.03;5240252;33;33462;-83
2023/09/12 11:17:08;;;;;;;6.10;4.30;;;;;;;34.20;30.63;100195.72;5252636;33;34899;-83
2023/09/12 11:20:13;;;;;;;9.13;4.53;;;;;;;34.70;29.78;100192.00;5256201;33;34289;-86
2023/09/12 11:23:16;;;;;;;6.28;4.00;;;;;;;35.67;28.89;100184.09;5254385;33;34413;-87
2023/09/12 11:26:20;;;;;;;7.78;3.40;;;;;;;35.88;28.18;100181.12;5241274;33;34509;-86
2023/09/12 11:29:36;;;;;;;6.50;3.47;;;;;;;36.24;27.01;100179.41;5237623;33;33913;-83
2023/09/12 11:32:39;;;;;;;8.07;3.50;;;;;;;36.89;26.80;100170.84;5254164;33;34023;-83
2023/09/12 11:35:43;;;;;;;7.37;3.47;;;;;;;37.23;25.59;100181.34;5241944;33;33327;-83
2023/09/12 11:38:51;;;;;;;7.75;3.50;;;;;;;37.45;24.77;100177.09;5243048;33;33952;-83
2023/09/12 11:41:56;;;;;;;5.55;3.30;;;;;;;38.02;23.93;100166.37;5239223;33;33711;-83
2023/09/12 11:45:00;;;;;;;9.55;3.90;;;;;;;38.91;23.51;100163.75;5240021;33;33971;-83
2023/09/12 11:48:03;;;;;;;8.63;3.78;;;;;;;39.81;22.59;100166.84;5241707;33;35098;-83
2023/09/12 11:51:07;;;;;;;6.85;3.20;;;;;;;41.36;21.33;100153.19;5222018;33;33344;-83
2023/09/12 11:54:10;;;;;;;6.65;3.50;;;;;;;41.72;20.25;100156.28;5235954;33;32765;-83
2023/09/12 11:57:15;;;;;;;4.32;3.00;;;;;;;41.91;21.04;100152.34;5234634;33;35986;-84
2023/09/12 12:00:19;;;;;;;5.07;2.80;;;;;;;42.23;19.46;100149.66;5233348;33;33395;-83
2023/09/12 12:03:27;;;;;;;4.62;2.87;;;;;;;42.82;19.00;100151.44;5246297;33;34581;-83
2023/09/12 12:06:31;;;;;;;4.60;3.30;;;;;;;43.44;18.27;100153.88;5245257;33;33918;-84
2023/09/12 12:09:34;;;;;;;5.70;2.92;;;;;;;43.82;18.59;100154.22;5233922;33;33539;-84
2023/09/12 12:12:37;;;;;;;7.95;3.00;;;;;;;44.08;17.27;100153.72;5236181;33;33358;-84
2023/09/12 12:15:41;;;;;;;8.65;3.00;;;;;;;45.01;16.51;100138.16;5233984;33;32917;-83
2023/09/12 12:18:43;;;;;;;5.28;2.87;;;;;;;43.35;18.21;100142.16;5234383;33;33651;-83
2023/09/12 12:21:47;;;;;;;4.18;3.33;;;;;;;44.62;16.76;100139.25;5233856;33;33594;-84
2023/09/12 12:24:51;;;;;;;6.75;2.80;;;;;;;44.68;17.23;100137.59;5243378;33;33820;-84
2023/09/12 12:27:55;;;;;;;3.50;2.75;;;;;;;45.37;16.64;100127.31;5230082;33;34500;-84
2023/09/12 12:30:59;;;;;;;4.28;2.87;;;;;;;46.63;16.21;100131.41;5236997;33;33694;-83
2023/09/12 12:34:03;;;;;;;7.93;3.00;;;;;;;47.03;14.96;100127.53;5238969;33;33795;-83
2023/09/12 12:37:30;;;;;;;8.20;3.10;;;;;;;44.74;16.00;100123.78;5237503;33;33684;-84
2023/09/12 12:40:40;;;;;;;5.28;2.97;;;;;;;45.37;16.01;100123.62;5252981;33;33997;-84
2023/09/12 12:43:51;;;;;;;5.75;2.78;;;;;;;46.61;15.37;100122.50;5254728;33;34818;-87
2023/09/12 12:46:54;;;;;;;10.18;2.83;;;;;;;46.74;14.81;100110.09;5246825;33;33763;-87
2023/09/12 12:49:57;;;;;;;6.50;2.67;;;;;;;47.54;14.52;100110.34;5244829;33;33655;-87
2023/09/12 12:53:00;;;;;;;8.77;2.75;;;;;;;47.15;14.22;100106.13;5245004;33;33987;-87
2023/09/12 12:56:03;;;;;;;7.30;3.08;;;;;;;46.24;14.82;100104.31;5244191;33;33803;-84
2023/09/12 12:59:08;;;;;;;7.75;3.15;;;;;;;46.10;15.02;100108.16;5244433;33;34119;-84
2023/09/12 13:02:11;;;;;;;8.43;2.75;;;;;;;45.63;15.24;100099.41;5254184;33;34224;-83
2023/09/12 13:05:24;;;;;;;6.87;2.67;;;;;;;46.66;14.99;100100.06;5241129;33;35383;-83
2023/09/12 13:08:27;;;;;;;5.62;2.70;;;;;;;47.09;15.04;100098.53;5253637;33;34518;-82
2023/09/12 13:11:34;;;;;;;5.72;3.17;;;;;;;47.40;14.14;100094.31;5253688;33;33843;-83
2023/09/12 13:14:37;;;;;;;7.37;2.70;;;;;;;47.11;14.22;100101.75;5253815;33;33812;-83
2023/09/12 13:17:41;;;;;;;7.20;2.80;;;;;;;46.37;14.36;100102.53;5253295;33;33722;-83
2023/09/12 13:20:43;;;;;;;8.43;3.17;;;;;;;46.20;14.54;100098.69;5253967;33;33872;-83
2023/09/12 13:23:48;;;;;;;9.00;2.80;;;;;;;46.38;14.76;100098.44;5241315;33;33847;-83
2023/09/12 13:26:51;;;;;;;5.75;2.90;;;;;;;46.98;14.12;100093.81;5241017;33;33875;-83
2023/09/12 13:29:55;;;;;;;7.45;2.87;;;;;;;46.63;14.67;100092.38;5253750;33;34525;-83
2023/09/12 13:33:02;;;;;;;8.52;3.00;;;;;;;46.47;14.88;100083.66;5253798;33;34496;-84
2023/09/12 13:36:07;;;;;;;5.75;3.15;;;;;;;47.77;14.37;100092.38;5230245;33;33818;-82
2023/09/12 13:39:12;;;;;;;8.95;2.65;;;;;;;45.89;14.95;100080.81;5228252;33;34666;-84
2023/09/12 13:42:20;;;;;;;6.12;2.53;;;;;;;45.51;14.99;100083.69;5228002;33;33805;-83
2023/09/12 13:45:23;;;;;;;16.90;3.20;;;;;;;46.74;14.63;100086.50;5240568;33;33733;-83
2023/09/12 13:48:26;;;;;;;7.32;3.00;;;;;;;46.02;15.12;100078.22;5226635;33;34453;-83
2023/09/12 13:51:30;;;;;;;7.53;3.42;;;;;;;46.25;14.59;100083.97;5238249;33;34232;-83
2023/09/12 13:54:33;;;;;;;8.82;3.17;;;;;;;45.33;15.37;100086.72;5231447;33;32593;-84
2023/09/12 13:57:36;;;;;;;10.63;3.22;;;;;;;44.65;15.81;100072.31;5235153;33;33955;-84
2023/09/12 14:00:53;;;;;;;10.55;3.10;;;;;;;45.23;15.66;100084.81;5231301;33;33932;-84
2023/09/12 14:03:56;;;;;;;9.25;2.95;;;;;;;44.90;15.50;100072.91;5229495;33;33899;-84
2023/09/12 14:07:02;;;;;;;8.85;3.45;;;;;;;43.05;17.77;100085.91;5229597;33;33904;-84
2023/09/12 14:10:09;;;;;;;8.75;3.53;;;;;;;41.60;18.62;100080.31;5218203;33;33756;-84
2023/09/12 14:13:21;;;;;;;13.07;3.33;;;;;;;39.48;20.08;100082.19;5241668;33;33475;-83
2023/09/12 14:16:26;;;;;;;5.35;2.97;;;;;;;37.87;21.62;100082.91;5240288;33;33946;-83
2023/09/12 14:19:29;;;;;;;10.30;3.30;;;;;;;36.77;22.63;100076.34;5217244;33;33856;-87
2023/09/12 14:22:33;;;;;;;9.27;3.00;;;;;;;36.22;23.95;100069.66;5240076;33;34867;-83
2023/09/12 14:25:38;;;;;;;8.43;3.17;;;;;;;35.40;24.03;100079.22;5253223;33;34694;-83
2023/09/12 14:28:41;;;;;;;9.30;3.50;;;;;;;34.91;24.74;100082.00;5234496;33;33475;-83
2023/09/12 14:31:50;;;;;;;12.18;3.22;;;;;;;34.40;25.15;100076.69;5216377;33;33235;-82
2023/09/12 14:34:54;;;;;;;10.05;3.50;;;;;;;33.93;27.17;100078.91;5221104;33;33571;-83
2023/09/12 14:37:58;;;;;;;7.50;3.33;;;;;;;33.50;27.93;100083.66;5237414;33;33958;-82
2023/09/12 14:41:02;;;;;;;12.00;3.53;;;;;;;33.13;27.66;100080.59;5224929;33;34067;-83
2023/09/12 14:44:05;;;;;;;6.50;3.05;;;;;;;32.77;28.14;100080.28;5251763;33;34328;-83
2023/09/12 14:47:08;;;;;;;8.43;3.03;;;;;;;32.68;28.02;100075.53;5226372;33;33892;-82
2023/09/12 14:50:11;;;;;;;6.20;3.20;;;;;;;32.33;28.43;100069.22;5228968;34;33626;-82
2023/09/12 14:53:15;;;;;;;11.63;3.65;;;;;;;32.34;27.88;100072.81;5246814;33;33506;-82
2023/09/12 14:56:18;;;;;;;10.60;3.72;;;;;;;32.05;28.44;100074.34;5257363;33;34070;-82
2023/09/12 14:59:21;;;;;;;13.50;3.62;;;;;;;31.79;28.87;100077.94;5260577;33;34122;-82
2023/09/12 15:02:31;;;;;;;9.07;3.47;;;;;;;31.47;29.34;100076.44;5235539;33;34104;-82
2023/09/12 15:05:34;;;;;;;9.80;3.45;;;;;;;31.37;30.00;100079.53;5255946;33;33906;-82
2023/09/12 15:08:37;;;;;;;10.77;3.80;;;;;;;31.20;30.08;100080.28;5258336;33;34526;-82
2023/09/12 15:11:40;;;;;;;9.63;3.60;;;;;;;31.22;31.27;100079.97;5243754;33;34040;-82
2023/09/12 15:14:43;;;;;;;10.98;3.60;;;;;;;31.11;30.47;100080.25;5231749;33;34577;-82
2023/09/12 15:17:46;;;;;;;15.13;3.60;;;;;;;31.17;30.58;100072.59;5223235;33;257910;-82
2023/09/12 15:20:51;;;;;;;7.05;3.58;;;;;;;31.01;31.67;100077.78;5256496;33;33778;-82
2023/09/12 15:23:55;;;;;;;10.48;3.72;;;;;;;30.96;31.85;100069.59;5266258;33;33957;-83
2023/09/12 15:26:59;;;;;;;9.40;3.78;;;;;;;30.85;31.23;100082.13;5257463;33;35496;-82
2023/09/12 15:30:03;;;;;;;11.90;3.67;;;;;;;30.79;31.70;100087.00;5236834;33;34071;-82
2023/09/12 15:33:05;;;;;;;11.18;3.78;;;;;;;30.83;31.37;100078.84;5248167;33;34672;-82
2023/09/12 15:36:09;;;;;;;7.00;3.72;;;;;;;30.82;32.08;100071.66;5245828;33;33912;-82
2023/09/12 15:39:12;;;;;;;12.05;3.90;;;;;;;30.75;31.77;100085.19;5219240;33;33544;-83
2023/09/12 15:42:16;;;;;;;8.63;3.75;;;;;;;30.73;31.87;100075.19;5241970;33;33878;-82
2023/09/12 15:45:37;;;;;;;8.27;3.45;;;;;;;30.61;33.15;100076.94;5240308;33;33995;-82
2023/09/12 15:48:54;;;;;;;8.82;3.67;;;;;;;30.57;31.95;100078.69;5253102;33;34034;-82
2023/09/12 15:51:57;;;;;;;9.65;3.70;;;;;;;30.51;32.83;100069.72;5217142;33;33929;-82
2023/09/12 15:55:00;;;;;;;13.38;3.90;;;;;;;30.17;35.14;100079.44;5219564;33;33355;-82
2023/09/12 15:58:03;;;;;;;9.98;3.92;;;;;;;30.02;34.98;100069.53;5230265;33;34476;-83
2023/09/12 16:01:07;;;;;;;8.82;3.92;;;;;;;29.89;36.29;100072.34;5241720;33;33821;-86
2023/09/12 16:04:10;;;;;;;9.57;3.65;;;;;;;29.76;34.67;100069.31;5248281;33;33531;-86
2023/09/12 16:07:13;;;;;;;8.00;3.65;;;;;;;29.63;34.36;100072.13;5241688;33;34061;-86
2023/09/12 16:10:16;;;;;;;10.05;3.75;;;;;;;29.59;34.68;100069.12;5236050;33;33400;-87
2023/09/12 16:13:19;;;;;;;7.40;3.47;;;;;;;29.57;34.88;100057.53;5225607;33;33590;-83
2023/09/12 16:16:23;;;;;;;11.30;3.85;;;;;;;29.43;35.11;100062.31;5238969;33;33886;-82
2023/09/12 16:19:25;;;;;;;7.87;3.53;;;;;;;29.28;36.32;100061.50;5235312;33;33928;-83
